createdAt,value
2022-11-07T00:01:11.457Z,56.26
2022-11-07T00:04:15.532Z,56.22
2022-11-07T00:07:19.221Z,56.42
2022-11-07T00:10:22.436Z,56.34
2022-11-07T00:13:27.544Z,56.25
2022-11-07T00:16:33.968Z,56.00
2022-11-07T00:19:38.114Z,56.27
2022-11-07T00:22:41.366Z,56.03
2022-11-07T00:25:45.337Z,56.11
2022-11-07T00:28:48.685Z,56.13
2022-11-07T00:31:53.853Z,56.05
2022-11-07T00:34:57.098Z,55.88
2022-11-07T00:38:00.885Z,56.18
2022-11-07T00:41:07.967Z,56.09
2022-11-07T00:44:12.047Z,56.07
2022-11-07T00:47:16.617Z,55.97
2022-11-07T00:50:20.840Z,55.87
2022-11-07T00:53:24.012Z,55.84
2022-11-07T00:56:28.052Z,55.98
2022-11-07T00:59:31.227Z,55.79
2022-11-07T01:02:36.521Z,55.74
2022-11-07T01:05:38.976Z,55.81
2022-11-07T01:08:42.576Z,55.72
2022-11-07T01:11:46.856Z,55.63
2022-11-07T01:14:50.733Z,55.53
2022-11-07T01:17:55.822Z,55.50
2022-11-07T01:21:00.516Z,55.67
2022-11-07T01:24:03.705Z,55.58
2022-11-07T01:27:07.838Z,55.53
2022-11-07T01:30:12.546Z,55.49
2022-11-07T01:33:17.915Z,55.43
2022-11-07T01:36:21.186Z,55.65
2022-11-07T01:39:24.973Z,55.54
2022-11-07T01:42:28.618Z,55.61
2022-11-07T01:45:32.640Z,55.42
2022-11-07T01:48:37.657Z,55.39
2022-11-07T01:51:47.739Z,55.40
2022-11-07T01:54:57.857Z,55.44
2022-11-07T01:58:06.418Z,55.25
2022-11-07T02:01:09.855Z,55.46
2022-11-07T02:04:15.859Z,55.49
2022-11-07T02:07:22.716Z,55.30
2022-11-07T02:10:28.518Z,55.58
2022-11-07T02:13:33.812Z,55.40
2022-11-07T02:16:38.143Z,55.34
2022-11-07T02:19:47.837Z,55.30
2022-11-07T02:22:57.522Z,55.17
2022-11-07T02:26:02.197Z,55.31
2022-11-07T02:29:11.226Z,55.24
2022-11-07T02:32:14.946Z,55.15
2022-11-07T02:35:39.138Z,55.10
2022-11-07T02:38:42.679Z,55.40
2022-11-07T02:41:49.384Z,55.56
2022-11-07T02:44:56.800Z,55.66
2022-11-07T02:48:00.647Z,55.50
2022-11-07T02:51:03.862Z,55.61
2022-11-07T02:54:07.884Z,55.44
2022-11-07T02:57:12.568Z,55.52
2022-11-07T03:00:17.746Z,55.71
2022-11-07T03:03:21.046Z,55.41
2022-11-07T03:06:26.884Z,55.42
2022-11-07T03:09:30.111Z,55.54
2022-11-07T03:12:35.748Z,55.43
2022-11-07T03:15:39.028Z,55.61
2022-11-07T03:18:42.650Z,55.58
2022-11-07T03:21:45.841Z,55.35
2022-11-07T03:24:49.844Z,55.33
2022-11-07T03:27:54.595Z,55.38
2022-11-07T03:31:02.245Z,55.43
2022-11-07T03:34:05.540Z,55.43
2022-11-07T03:37:09.717Z,55.50
2022-11-07T03:40:13.414Z,55.30
2022-11-07T03:43:18.978Z,55.02
2022-11-07T03:46:22.205Z,55.42
2022-11-07T03:49:26.112Z,55.28
2022-11-07T03:52:29.416Z,55.27
2022-11-07T03:55:33.317Z,55.15
2022-11-07T03:58:39.279Z,55.33
2022-11-07T04:01:44.637Z,55.35
2022-11-07T04:04:47.967Z,55.52
2022-11-07T04:07:52.114Z,55.37
2022-11-07T04:10:55.517Z,55.43
2022-11-07T04:14:18.491Z,55.47
2022-11-07T04:17:21.893Z,55.50
2022-11-07T04:20:25.468Z,55.39
2022-11-07T04:23:28.737Z,55.42
2022-11-07T04:26:49.830Z,55.17
2022-11-07T04:29:54.919Z,55.35
2022-11-07T04:33:01.773Z,55.12
2022-11-07T04:36:05.710Z,55.38
2022-11-07T04:39:09.536Z,55.26
2022-11-07T04:42:12.872Z,55.74
2022-11-07T04:45:19.297Z,55.46
2022-11-07T04:48:23.072Z,55.27
2022-11-07T04:51:26.914Z,55.31
2022-11-07T04:54:30.147Z,55.36
2022-11-07T04:57:33.911Z,55.56
2022-11-07T05:00:38.721Z,55.48
2022-11-07T05:03:42.481Z,55.57
2022-11-07T05:06:45.720Z,55.45
2022-11-07T05:09:49.549Z,55.39
2022-11-07T05:12:52.925Z,55.65
2022-11-07T05:15:59.309Z,55.37
2022-11-07T05:19:02.638Z,55.71
2022-11-07T05:22:23.995Z,55.47
2022-11-07T05:25:27.228Z,55.68
2022-11-07T05:28:38.736Z,55.51
2022-11-07T05:31:44.005Z,55.77
2022-11-07T05:34:47.725Z,55.52
2022-11-07T05:37:51.245Z,55.66
2022-11-07T05:40:54.968Z,55.77
2022-11-07T05:43:58.151Z,55.92
2022-11-07T05:47:03.343Z,56.13
2022-11-07T05:50:07.793Z,56.15
2022-11-07T05:53:11.838Z,55.73
2022-11-07T05:56:15.355Z,55.81
2022-11-07T05:59:19.961Z,55.87
2022-11-07T06:02:24.663Z,55.67
2022-11-07T06:05:30.377Z,55.63
2022-11-07T06:08:33.524Z,55.59
2022-11-07T06:11:37.666Z,55.51
2022-11-07T06:14:40.897Z,55.32
2022-11-07T06:17:46.286Z,55.60
2022-11-07T06:20:49.837Z,55.55
2022-11-07T06:23:53.498Z,55.47
2022-11-07T06:26:56.690Z,55.44
2022-11-07T06:30:00.441Z,55.16
2022-11-07T06:33:08.476Z,55.11
2022-11-07T06:36:13.935Z,55.04
2022-11-07T06:39:17.254Z,54.99
2022-11-07T06:42:21.028Z,55.14
2022-11-07T06:45:24.194Z,55.00
2022-11-07T06:48:29.693Z,54.87
2022-11-07T06:51:33.124Z,54.96
2022-11-07T06:54:36.709Z,54.46
2022-11-07T06:57:39.878Z,54.75
2022-11-07T07:00:43.470Z,54.75
2022-11-07T07:03:48.031Z,54.74
2022-11-07T07:06:51.573Z,54.62
2022-11-07T07:09:54.741Z,54.45
2022-11-07T07:12:58.596Z,54.36
2022-11-07T07:16:02.226Z,54.43
2022-11-07T07:19:07.475Z,54.32
2022-11-07T07:25:17.068Z,54.23
2022-11-07T07:28:20.235Z,54.32
2022-11-07T07:31:30.740Z,53.96
2022-11-07T07:34:35.351Z,54.16
2022-11-07T07:37:39.205Z,53.92
2022-11-07T07:40:42.480Z,53.98
2022-11-07T07:43:46.823Z,54.00
2022-11-07T07:46:50.023Z,53.88
2022-11-07T07:49:55.354Z,53.91
2022-11-07T07:53:00.760Z,53.70
2022-11-07T07:56:08.309Z,53.64
2022-11-07T07:59:11.543Z,53.54
2022-11-07T08:02:15.111Z,53.41
2022-11-07T08:05:19.789Z,53.28
2022-11-07T08:08:24.604Z,53.27
2022-11-07T08:11:28.251Z,53.13
2022-11-07T08:14:31.777Z,52.55
2022-11-07T08:17:35.330Z,52.91
2022-11-07T08:20:40.706Z,52.83
2022-11-07T08:23:43.923Z,52.77
2022-11-07T08:26:47.537Z,52.87
2022-11-07T08:29:50.871Z,52.43
2022-11-07T08:32:56.680Z,52.81
2022-11-07T08:36:03.829Z,52.71
2022-11-07T08:39:07.539Z,53.06
2022-11-07T08:42:10.836Z,52.92
2022-11-07T08:45:14.779Z,53.28
2022-11-07T08:48:19.083Z,53.90
2022-11-07T08:51:24.441Z,54.46
2022-11-07T08:54:28.695Z,54.92
2022-11-07T08:57:32.336Z,55.15
2022-11-07T09:00:37.604Z,55.29
2022-11-07T09:03:54.662Z,55.49
2022-11-07T09:07:01.301Z,55.77
2022-11-07T09:10:05.626Z,56.15
2022-11-07T09:13:08.951Z,56.50
2022-11-07T09:16:12.737Z,56.53
2022-11-07T09:19:15.980Z,56.77
2022-11-07T09:22:21.006Z,56.73
2022-11-07T09:25:24.508Z,56.85
2022-11-07T09:28:28.315Z,56.79
2022-11-07T09:31:31.539Z,56.78
2022-11-07T09:34:35.315Z,56.99
2022-11-07T09:37:40.990Z,57.12
2022-11-07T09:40:57.786Z,56.30
2022-11-07T09:44:30.915Z,55.98
2022-11-07T09:47:45.355Z,56.10
2022-11-07T09:50:51.731Z,56.13
2022-11-07T09:54:04.532Z,56.08
2022-11-07T09:57:15.563Z,56.10
2022-11-07T10:00:22.579Z,55.98
2022-11-07T10:03:25.897Z,55.64
2022-11-07T10:06:33.953Z,55.73
2022-11-07T10:09:51.691Z,55.55
2022-11-07T10:13:53.464Z,55.24
2022-11-07T10:17:14.914Z,55.10
2022-11-07T10:20:37.947Z,54.64
2022-11-07T10:24:01.292Z,53.96
2022-11-07T10:27:10.885Z,53.65
2022-11-07T10:30:19.871Z,53.59
2022-11-07T10:33:39.833Z,54.35
2022-11-07T10:36:43.252Z,54.67
2022-11-07T10:39:47.282Z,54.28
2022-11-07T10:42:53.876Z,53.87
2022-11-07T10:45:59.682Z,53.57
2022-11-07T10:49:05.597Z,53.11
2022-11-07T10:52:17.906Z,53.43
2022-11-07T10:55:21.597Z,53.49
2022-11-07T10:58:31.288Z,53.39
2022-11-07T11:01:34.583Z,53.27
2022-11-07T11:04:39.546Z,53.23
2022-11-07T11:07:43.062Z,53.58
2022-11-07T11:10:47.369Z,53.97
2022-11-07T11:14:07.475Z,51.41
2022-11-07T11:17:26.442Z,50.07
2022-11-07T11:20:39.174Z,48.44
2022-11-07T11:23:46.265Z,47.47
2022-11-07T11:26:53.060Z,46.91
2022-11-07T11:30:06.539Z,44.61
2022-11-07T11:33:18.682Z,43.13
2022-11-07T11:36:29.738Z,42.08
2022-11-07T11:39:43.979Z,41.33
2022-11-07T11:42:58.490Z,40.63
2022-11-07T11:46:15.858Z,40.06
2022-11-07T11:49:29.063Z,39.83
2022-11-07T11:52:32.853Z,39.97
2022-11-07T11:55:52.403Z,40.24
2022-11-07T11:59:30.994Z,39.77
2022-11-07T12:03:16.234Z,39.91
2022-11-07T12:06:24.808Z,39.72
2022-11-07T12:09:44.882Z,40.48
2022-11-07T12:13:07.525Z,40.50
2022-11-07T12:16:28.349Z,40.80
2022-11-07T12:19:47.934Z,41.50
2022-11-07T12:23:17.513Z,41.67
2022-11-07T12:26:29.439Z,41.58
2022-11-07T12:29:52.426Z,41.73
2022-11-07T12:33:17.851Z,42.43
2022-11-07T12:36:46.801Z,42.65
2022-11-07T12:40:12.838Z,42.77
2022-11-07T12:43:35.217Z,43.22
2022-11-07T12:46:49.639Z,43.49
2022-11-07T12:50:11.243Z,43.74
2022-11-07T12:53:33.433Z,43.90
2022-11-07T12:56:39.695Z,44.47
2022-11-07T12:59:52.560Z,44.70
2022-11-07T13:03:16.142Z,44.96
2022-11-07T13:06:30.833Z,45.50
2022-11-07T13:09:48.068Z,46.29
2022-11-07T13:13:01.857Z,47.04
2022-11-07T13:16:15.628Z,47.19
2022-11-07T13:19:32.998Z,47.50
2022-11-07T13:22:40.214Z,47.92
2022-11-07T13:26:14.890Z,48.47
2022-11-07T13:29:36.723Z,48.72
2022-11-07T13:32:40.565Z,48.86
2022-11-07T13:35:56.403Z,49.15
2022-11-07T13:39:01.893Z,49.55
2022-11-07T13:42:07.393Z,49.62
2022-11-07T13:45:27.718Z,49.76
2022-11-07T13:48:51.835Z,50.15
2022-11-07T13:51:59.799Z,50.25
2022-11-07T13:55:13.889Z,50.33
2022-11-07T13:58:20.715Z,50.64
2022-11-07T14:01:24.937Z,50.60
2022-11-07T14:04:29.914Z,50.72
2022-11-07T14:07:36.948Z,50.95
2022-11-07T14:10:46.385Z,51.13
2022-11-07T14:13:55.573Z,50.50
2022-11-07T14:17:01.104Z,51.39
2022-11-07T14:20:15.926Z,51.30
2022-11-07T14:23:24.179Z,51.25
2022-11-07T14:26:30.906Z,51.15
2022-11-07T14:29:35.928Z,51.01
2022-11-07T14:32:40.411Z,51.48
2022-11-07T14:35:47.291Z,51.52
2022-11-07T14:38:53.463Z,51.53
2022-11-07T14:41:59.481Z,51.56
2022-11-07T14:45:08.410Z,51.58
2022-11-07T14:48:14.281Z,51.60
2022-11-07T14:51:24.257Z,52.03
2022-11-07T14:54:37.169Z,51.72
2022-11-07T14:57:42.714Z,52.20
2022-11-07T15:00:57.108Z,52.35
2022-11-07T15:04:15.419Z,52.20
2022-11-07T15:07:26.076Z,52.07
2022-11-07T15:10:35.487Z,52.08
2022-11-07T15:13:38.773Z,52.16
2022-11-07T15:16:50.688Z,52.09
2022-11-07T15:20:01.521Z,52.18
2022-11-07T15:23:27.014Z,52.18
2022-11-07T15:26:34.812Z,51.93
2022-11-07T15:29:38.543Z,52.40
2022-11-07T15:32:45.402Z,52.37
2022-11-07T15:35:52.071Z,52.89
2022-11-07T15:38:56.181Z,52.77
2022-11-07T15:42:01.561Z,53.07
2022-11-07T15:45:05.289Z,53.13
2022-11-07T15:48:17.830Z,53.13
2022-11-07T15:51:21.673Z,53.06
2022-11-07T15:54:25.441Z,53.23
2022-11-07T15:57:35.093Z,53.14
2022-11-07T16:00:38.772Z,53.15
2022-11-07T16:03:43.359Z,53.28
2022-11-07T16:06:47.844Z,53.32
2022-11-07T16:09:51.475Z,53.51
2022-11-07T16:12:58.723Z,53.54
2022-11-07T16:16:06.829Z,53.16
2022-11-07T16:19:17.223Z,53.34
2022-11-07T16:22:20.384Z,53.42
2022-11-07T16:25:26.035Z,53.69
2022-11-07T16:28:32.984Z,53.52
2022-11-07T16:31:39.891Z,53.57
2022-11-07T16:34:44.447Z,53.61
2022-11-07T16:37:48.199Z,53.63
2022-11-07T16:40:52.577Z,53.48
2022-11-07T16:43:57.242Z,53.63
2022-11-07T16:47:01.260Z,53.26
2022-11-07T16:50:08.263Z,53.44
2022-11-07T16:53:14.034Z,53.60
2022-11-07T16:56:26.429Z,53.57
2022-11-07T16:59:29.633Z,53.49
2022-11-07T17:02:34.151Z,53.53
2022-11-07T17:05:38.893Z,53.08
2022-11-07T17:08:43.168Z,53.63
2022-11-07T17:11:46.487Z,53.56
2022-11-07T17:14:51.806Z,53.49
2022-11-07T17:17:59.362Z,53.50
2022-11-07T17:21:06.423Z,53.48
2022-11-07T17:24:10.683Z,53.34
2022-11-07T17:27:24.006Z,53.28
2022-11-07T17:30:27.217Z,53.47
2022-11-07T17:33:31.603Z,53.42
2022-11-07T17:36:40.357Z,53.47
2022-11-07T17:39:46.102Z,53.48
2022-11-07T17:42:49.290Z,53.33
2022-11-07T17:45:53.147Z,53.21
2022-11-07T17:48:58.699Z,53.45
2022-11-07T17:52:04.639Z,53.47
2022-11-07T17:55:09.695Z,53.26
2022-11-07T17:58:13.505Z,53.35
2022-11-07T18:01:20.922Z,53.28
2022-11-07T18:04:24.876Z,53.23
2022-11-07T18:07:29.437Z,53.42
2022-11-07T18:10:33.197Z,53.30
2022-11-07T18:13:36.515Z,53.32
2022-11-07T18:16:40.611Z,53.43
2022-11-07T18:19:43.804Z,53.76
2022-11-07T18:22:49.242Z,53.37
2022-11-07T18:25:52.458Z,53.31
2022-11-07T18:28:56.524Z,53.26
2022-11-07T18:31:59.740Z,53.30
2022-11-07T18:35:04.978Z,53.06
2022-11-07T18:38:09.714Z,53.54
2022-11-07T18:41:19.115Z,53.31
2022-11-07T18:44:22.481Z,53.11
2022-11-07T18:47:26.432Z,53.07
2022-11-07T18:50:29.756Z,53.11
2022-11-07T18:53:35.328Z,53.18
2022-11-07T18:56:38.710Z,53.06
2022-11-07T18:59:42.360Z,53.07
2022-11-07T19:02:45.601Z,53.39
2022-11-07T19:05:50.236Z,53.24
2022-11-07T19:08:54.949Z,53.52
2022-11-07T19:12:00.336Z,53.70
2022-11-07T19:15:04.062Z,53.83
2022-11-07T19:18:10.478Z,54.01
2022-11-07T19:21:18.987Z,53.80
2022-11-07T19:24:25.107Z,53.90
2022-11-07T19:27:29.530Z,54.09
2022-11-07T19:30:33.940Z,54.11
2022-11-07T19:33:37.529Z,54.18
2022-11-07T19:36:41.197Z,54.04
2022-11-07T19:39:45.920Z,54.12
2022-11-07T19:42:51.184Z,53.94
2022-11-07T19:45:54.397Z,54.32
2022-11-07T19:48:58.221Z,54.72
2022-11-07T19:52:01.485Z,54.93
2022-11-07T19:55:07.522Z,54.84
2022-11-07T19:58:10.845Z,54.81
2022-11-07T20:01:17.475Z,54.96
2022-11-07T20:04:20.739Z,55.28
2022-11-07T20:07:24.641Z,55.47
2022-11-07T20:10:29.714Z,55.49
2022-11-07T20:13:34.630Z,55.63
2022-11-07T20:16:37.930Z,55.74
2022-11-07T20:19:41.787Z,55.73
2022-11-07T20:22:47.464Z,56.17
2022-11-07T20:25:52.461Z,56.48
2022-11-07T20:28:55.824Z,56.72
2022-11-07T20:31:59.945Z,56.46
2022-11-07T20:35:03.073Z,57.03
2022-11-07T20:38:06.949Z,57.14
2022-11-07T20:41:14.239Z,56.89
2022-11-07T20:44:18.546Z,57.34
2022-11-07T20:47:22.685Z,57.16
2022-11-07T20:50:26.893Z,57.30
2022-11-07T20:53:30.303Z,57.16
2022-11-07T20:56:35.981Z,57.56
2022-11-07T20:59:41.244Z,58.47
2022-11-07T21:02:45.263Z,58.67
2022-11-07T21:05:51.879Z,58.43
2022-11-07T21:08:55.610Z,58.31
2022-11-07T21:12:00.164Z,58.14
2022-11-07T21:15:04.636Z,58.10
2022-11-07T21:18:07.975Z,57.86
2022-11-07T21:21:18.572Z,57.96
2022-11-07T21:24:22.136Z,57.85
2022-11-07T21:27:27.446Z,57.74
2022-11-07T21:30:30.671Z,57.95
2022-11-07T21:33:34.464Z,58.00
2022-11-07T21:36:37.780Z,58.03
2022-11-07T21:39:41.903Z,58.78
2022-11-07T21:42:46.425Z,60.44
2022-11-07T21:45:50.572Z,60.72
2022-11-07T21:48:55.271Z,61.19
2022-11-07T21:51:59.016Z,62.47
2022-11-07T21:55:02.265Z,57.72
2022-11-07T21:58:07.641Z,54.32
2022-11-07T22:01:11.640Z,54.61
2022-11-07T22:04:15.873Z,54.12
2022-11-07T22:07:19.227Z,54.98
2022-11-07T22:10:22.948Z,55.41
2022-11-07T22:13:28.107Z,57.15
2022-11-07T22:16:32.482Z,58.05
2022-11-07T22:19:35.870Z,58.52
2022-11-07T22:22:39.511Z,58.72
2022-11-07T22:25:42.688Z,59.31
2022-11-07T22:28:48.600Z,59.78
2022-11-07T22:31:51.748Z,59.71
2022-11-07T22:34:55.517Z,60.02
2022-11-07T22:37:58.696Z,60.44
2022-11-07T22:41:03.087Z,60.65
2022-11-07T22:44:07.719Z,60.74
2022-11-07T22:47:11.427Z,60.60
2022-11-07T22:50:14.673Z,60.55
2022-11-07T22:53:19.923Z,60.49
2022-11-07T22:56:23.776Z,60.40
2022-11-07T22:59:29.087Z,60.62
2022-11-07T23:02:33.286Z,60.24
2022-11-07T23:05:37.112Z,60.08
2022-11-07T23:08:41.043Z,59.88
2022-11-07T23:11:47.500Z,59.78
2022-11-07T23:14:55.568Z,59.59
2022-11-07T23:17:59.661Z,59.74
2022-11-07T23:21:11.990Z,59.59
2022-11-07T23:24:15.907Z,60.91
2022-11-07T23:27:20.128Z,62.45
2022-11-07T23:30:25.387Z,62.90
2022-11-07T23:33:28.920Z,63.53
2022-11-07T23:36:32.847Z,64.15
2022-11-07T23:39:36.114Z,64.70
2022-11-07T23:42:39.841Z,64.76
2022-11-07T23:46:02.060Z,64.47
2022-11-07T23:49:23.106Z,64.28
2022-11-07T23:52:26.278Z,64.25
2022-11-07T23:55:41.318Z,63.70
2022-11-07T23:59:02.239Z,63.58
